sensor_id;sensor_type;location;lat;lon;timestamp;pressure;altitude;pressure_sealevel;temperature;humidity
74989;BME280;63542;57.994;56.150;2023-06-10T04:47:34;100127.31;;;21.40;41.85
74989;BME280;63542;57.994;56.150;2023-06-10T04:48:09;100117.84;;;20.98;41.59
74989;BME280;63542;57.994;56.150;2023-06-10T04:48:42;100115.78;;;20.86;41.90
74989;BME280;63542;57.994;56.150;2023-06-10T04:49:15;100119.72;;;20.91;41.64
74989;BME280;63542;57.994;56.150;2023-06-10T04:49:47;100106.41;;;20.42;42.99
74989;BME280;63542;57.994;56.150;2023-06-10T04:50:28;100107.47;;;20.68;42.74
74989;BME280;63542;57.994;56.150;2023-06-10T04:51:01;100106.25;;;20.71;42.58
74989;BME280;63542;57.994;56.150;2023-06-10T04:51:33;100107.28;;;20.90;42.70
74989;BME280;63542;57.994;56.150;2023-06-10T04:52:06;100118.25;;;20.55;42.83
74989;BME280;63542;57.994;56.150;2023-06-10T04:52:42;100110.78;;;20.57;42.56
74989;BME280;63542;57.994;56.150;2023-06-10T04:53:15;100106.47;;;20.62;42.64
74989;BME280;63542;57.994;56.150;2023-06-10T04:53:50;100107.69;;;20.86;42.59
74989;BME280;63542;57.994;56.150;2023-06-10T04:54:22;100105.00;;;21.00;41.91
74989;BME280;63542;57.994;56.150;2023-06-10T04:54:54;100105.19;;;20.98;41.34
74989;BME280;63542;57.994;56.150;2023-06-10T04:55:26;100110.53;;;21.18;41.42
74989;BME280;63542;57.994;56.150;2023-06-10T04:55:58;100118.63;;;20.32;43.42
74989;BME280;63542;57.994;56.150;2023-06-10T04:56:30;100114.94;;;20.66;43.06
74989;BME280;63542;57.994;56.150;2023-06-10T04:57:02;100120.34;;;20.86;43.29
74989;BME280;63542;57.994;56.150;2023-06-10T04:57:34;100122.00;;;21.00;42.34
74989;BME280;63542;57.994;56.150;2023-06-10T04:58:06;100120.31;;;21.06;42.36
74989;BME280;63542;57.994;56.150;2023-06-10T04:58:37;100121.09;;;21.26;42.15
74989;BME280;63542;57.994;56.150;2023-06-10T04:59:09;100129.59;;;21.37;41.37
74989;BME280;63542;57.994;56.150;2023-06-10T04:59:41;100125.38;;;21.67;40.93
74989;BME280;63542;57.994;56.150;2023-06-10T05:00:13;100121.44;;;21.70;40.38
74989;BME280;63542;57.994;56.150;2023-06-10T05:00:45;100124.72;;;21.79;40.24
74989;BME280;63542;57.994;56.150;2023-06-10T05:01:16;100125.56;;;22.18;40.06
74989;BME280;63542;57.994;56.150;2023-06-10T05:01:48;100115.72;;;22.87;38.54
74989;BME280;63542;57.994;56.150;2023-06-10T05:02:20;100127.81;;;22.21;39.73
74989;BME280;63542;57.994;56.150;2023-06-10T05:02:51;100121.56;;;22.84;39.07
74989;BME280;63542;57.994;56.150;2023-06-10T05:03:23;100121.94;;;23.13;38.47
74989;BME280;63542;57.994;56.150;2023-06-10T05:03:55;100124.50;;;23.26;38.16
74989;BME280;63542;57.994;56.150;2023-06-10T05:04:27;100122.63;;;23.08;37.90
74989;BME280;63542;57.994;56.150;2023-06-10T05:04:59;100122.09;;;23.18;37.83
74989;BME280;63542;57.994;56.150;2023-06-10T05:05:30;100125.78;;;23.23;38.06
74989;BME280;63542;57.994;56.150;2023-06-10T05:06:02;100127.38;;;23.31;37.69
74989;BME280;63542;57.994;56.150;2023-06-10T05:06:34;100123.19;;;23.35;37.51
74989;BME280;63542;57.994;56.150;2023-06-10T05:07:07;100120.28;;;22.86;37.96
74989;BME280;63542;57.994;56.150;2023-06-10T05:07:39;100120.41;;;22.73;37.99
74989;BME280;63542;57.994;56.150;2023-06-10T05:08:10;100129.78;;;22.96;37.75
74989;BME280;63542;57.994;56.150;2023-06-10T05:08:42;100129.31;;;22.99;38.60
74989;BME280;63542;57.994;56.150;2023-06-10T05:09:13;100128.28;;;23.00;38.80
74989;BME280;63542;57.994;56.150;2023-06-10T05:09:45;100125.59;;;23.00;38.61
74989;BME280;63542;57.994;56.150;2023-06-10T05:10:17;100134.84;;;22.85;37.93
74989;BME280;63542;57.994;56.150;2023-06-10T05:10:49;100123.59;;;22.88;38.56
74989;BME280;63542;57.994;56.150;2023-06-10T05:11:21;100137.28;;;22.94;38.70
74989;BME280;63542;57.994;56.150;2023-06-10T05:11:53;100132.97;;;22.86;38.81
74989;BME280;63542;57.994;56.150;2023-06-10T05:12:25;100130.25;;;22.61;38.95
74989;BME280;63542;57.994;56.150;2023-06-10T05:12:58;100139.50;;;22.46;39.55
74989;BME280;63542;57.994;56.150;2023-06-10T05:13:29;100134.06;;;22.15;39.73
74989;BME280;63542;57.994;56.150;2023-06-10T05:14:01;100141.31;;;22.21;40.28
74989;BME280;63542;57.994;56.150;2023-06-10T05:14:33;100151.13;;;22.08;40.82
74989;BME280;63542;57.994;56.150;2023-06-10T05:15:06;100137.06;;;22.00;40.72
74989;BME280;63542;57.994;56.150;2023-06-10T05:15:38;100144.56;;;21.98;41.29
74989;BME280;63542;57.994;56.150;2023-06-10T05:16:11;100139.63;;;21.81;41.22
74989;BME280;63542;57.994;56.150;2023-06-10T05:16:43;100140.28;;;21.77;41.96
74989;BME280;63542;57.994;56.150;2023-06-10T05:17:15;100130.66;;;21.22;41.51
74989;BME280;63542;57.994;56.150;2023-06-10T05:17:46;100131.88;;;21.46;42.21
74989;BME280;63542;57.994;56.150;2023-06-10T05:18:18;100137.50;;;21.45;42.39
74989;BME280;63542;57.994;56.150;2023-06-10T05:18:49;100134.13;;;21.56;42.45
74989;BME280;63542;57.994;56.150;2023-06-10T05:19:23;100121.91;;;21.54;42.90
74989;BME280;63542;57.994;56.150;2023-06-10T05:19:54;100134.13;;;21.56;41.21
74989;BME280;63542;57.994;56.150;2023-06-10T05:20:27;100143.81;;;21.77;42.50
74989;BME280;63542;57.994;56.150;2023-06-10T05:20:59;100138.31;;;21.45;41.56
74989;BME280;63542;57.994;56.150;2023-06-10T05:21:31;100141.06;;;21.19;42.00
74989;BME280;63542;57.994;56.150;2023-06-10T05:22:03;100141.25;;;21.24;43.15
74989;BME280;63542;57.994;56.150;2023-06-10T05:22:35;100144.75;;;21.24;42.21
74989;BME280;63542;57.994;56.150;2023-06-10T05:23:07;100126.50;;;21.26;43.59
74989;BME280;63542;57.994;56.150;2023-06-10T05:23:38;100140.16;;;21.52;42.71
74989;BME280;63542;57.994;56.150;2023-06-10T05:24:11;100138.50;;;21.44;43.72
74989;BME280;63542;57.994;56.150;2023-06-10T05:24:43;100137.66;;;21.63;43.26
74989;BME280;63542;57.994;56.150;2023-06-10T05:25:15;100142.97;;;21.77;41.84
74989;BME280;63542;57.994;56.150;2023-06-10T05:25:47;100143.50;;;22.05;42.42
74989;BME280;63542;57.994;56.150;2023-06-10T05:26:19;100136.44;;;21.98;41.71
74989;BME280;63542;57.994;56.150;2023-06-10T05:26:52;100135.19;;;22.07;41.64
74989;BME280;63542;57.994;56.150;2023-06-10T05:27:24;100138.28;;;22.04;41.38
74989;BME280;63542;57.994;56.150;2023-06-10T05:27:56;100146.22;;;21.99;41.91
74989;BME280;63542;57.994;56.150;2023-06-10T05:28:28;100138.44;;;22.16;41.03
74989;BME280;63542;57.994;56.150;2023-06-10T05:29:00;100139.53;;;22.08;40.57
74989;BME280;63542;57.994;56.150;2023-06-10T05:29:32;100136.91;;;21.95;41.10
74989;BME280;63542;57.994;56.150;2023-06-10T05:30:05;100134.56;;;21.98;40.44
74989;BME280;63542;57.994;56.150;2023-06-10T05:30:38;100143.25;;;22.14;40.65
74989;BME280;63542;57.994;56.150;2023-06-10T05:31:10;100139.41;;;22.35;40.96
74989;BME280;63542;57.994;56.150;2023-06-10T05:31:42;100143.34;;;22.32;40.39
74989;BME280;63542;57.994;56.150;2023-06-10T05:32:14;100144.72;;;22.48;40.73
74989;BME280;63542;57.994;56.150;2023-06-10T05:32:46;100144.75;;;22.41;40.77
74989;BME280;63542;57.994;56.150;2023-06-10T05:33:18;100139.34;;;22.41;40.72
74989;BME280;63542;57.994;56.150;2023-06-10T05:33:49;100138.03;;;22.50;40.52
74989;BME280;63542;57.994;56.150;2023-06-10T05:34:21;100127.75;;;22.34;39.84
74989;BME280;63542;57.994;56.150;2023-06-10T05:34:53;100150.22;;;22.35;41.13
74989;BME280;63542;57.994;56.150;2023-06-10T05:35:25;100139.78;;;22.38;40.51
74989;BME280;63542;57.994;56.150;2023-06-10T05:35:57;100143.78;;;22.61;39.85
74989;BME280;63542;57.994;56.150;2023-06-10T05:36:29;100143.56;;;22.87;40.43
74989;BME280;63542;57.994;56.150;2023-06-10T05:37:01;100139.31;;;22.98;39.53
74989;BME280;63542;57.994;56.150;2023-06-10T05:37:34;100151.41;;;22.96;38.43
74989;BME280;63542;57.994;56.150;2023-06-10T05:38:08;100144.59;;;22.86;39.17
74989;BME280;63542;57.994;56.150;2023-06-10T05:38:40;100144.50;;;23.25;39.64
74989;BME280;63542;57.994;56.150;2023-06-10T05:39:11;100145.09;;;23.08;39.66
74989;BME280;63542;57.994;56.150;2023-06-10T05:39:43;100148.66;;;22.77;39.58
74989;BME280;63542;57.994;56.150;2023-06-10T05:40:15;100151.34;;;22.52;40.82
74989;BME280;63542;57.994;56.150;2023-06-10T05:40:47;100141.53;;;22.58;40.62
74989;BME280;63542;57.994;56.150;2023-06-10T05:41:19;100143.34;;;22.64;40.22
74989;BME280;63542;57.994;56.150;2023-06-10T05:41:52;100145.34;;;22.75;40.99
74989;BME280;63542;57.994;56.150;2023-06-10T05:42:24;100139.97;;;22.43;40.09
74989;BME280;63542;57.994;56.150;2023-06-10T05:42:56;100142.56;;;22.57;40.46
74989;BME280;63542;57.994;56.150;2023-06-10T05:43:27;100143.69;;;22.74;41.21
74989;BME280;63542;57.994;56.150;2023-06-10T05:43:59;100141.28;;;22.59;40.29
74989;BME280;63542;57.994;56.150;2023-06-10T05:44:31;100149.63;;;22.58;40.41
74989;BME280;63542;57.994;56.150;2023-06-10T05:45:03;100144.00;;;22.21;41.85
74989;BME280;63542;57.994;56.150;2023-06-10T05:45:37;100144.16;;;22.39;40.70
74989;BME280;63542;57.994;56.150;2023-06-10T05:46:47;100142.97;;;21.77;41.51
74989;BME280;63542;57.994;56.150;2023-06-10T05:47:19;100151.28;;;21.75;41.44
74989;BME280;63542;57.994;56.150;2023-06-10T05:47:51;100140.56;;;21.55;43.00
74989;BME280;63542;57.994;56.150;2023-06-10T05:48:23;100142.63;;;21.60;42.30
74989;BME280;63542;57.994;56.150;2023-06-10T05:48:55;100140.19;;;21.38;42.65
74989;BME280;63542;57.994;56.150;2023-06-10T05:49:27;100139.06;;;21.73;42.73
74989;BME280;63542;57.994;56.150;2023-06-10T05:49:59;100136.59;;;21.64;42.20
74989;BME280;63542;57.994;56.150;2023-06-10T05:50:31;100149.94;;;21.33;42.11
74989;BME280;63542;57.994;56.150;2023-06-10T05:51:09;100149.56;;;20.82;43.57
74989;BME280;63542;57.994;56.150;2023-06-10T05:51:41;100146.00;;;20.48;43.09
74989;BME280;63542;57.994;56.150;2023-06-10T05:52:13;100153.44;;;20.46;43.67
74989;BME280;63542;57.994;56.150;2023-06-10T05:52:45;100151.19;;;20.50;43.96
74989;BME280;63542;57.994;56.150;2023-06-10T05:53:17;100148.94;;;20.80;43.72
74989;BME280;63542;57.994;56.150;2023-06-10T05:53:49;100138.56;;;21.04;45.34
74989;BME280;63542;57.994;56.150;2023-06-10T05:54:21;100151.84;;;21.05;43.36
74989;BME280;63542;57.994;56.150;2023-06-10T05:54:52;100148.91;;;21.27;43.68
74989;BME280;63542;57.994;56.150;2023-06-10T05:55:25;100152.81;;;21.58;44.01
74989;BME280;63542;57.994;56.150;2023-06-10T05:55:57;100153.97;;;21.82;43.84
74989;BME280;63542;57.994;56.150;2023-06-10T05:56:29;100151.72;;;21.72;42.42
74989;BME280;63542;57.994;56.150;2023-06-10T05:57:01;100143.03;;;21.63;43.25
74989;BME280;63542;57.994;56.150;2023-06-10T05:57:34;100154.22;;;21.67;43.38
74989;BME280;63542;57.994;56.150;2023-06-10T05:58:06;100158.47;;;21.43;42.73
74989;BME280;63542;57.994;56.150;2023-06-10T05:58:38;100147.84;;;21.35;43.06
74989;BME280;63542;57.994;56.150;2023-06-10T05:59:10;100163.41;;;21.39;42.71
74989;BME280;63542;57.994;56.150;2023-06-10T05:59:42;100159.50;;;21.48;42.63
74989;BME280;63542;57.994;56.150;2023-06-10T06:00:14;100147.66;;;21.43;42.69
74989;BME280;63542;57.994;56.150;2023-06-10T06:00:46;100147.66;;;21.49;42.70
74989;BME280;63542;57.994;56.150;2023-06-10T06:01:18;100150.09;;;21.58;42.60
74989;BME280;63542;57.994;56.150;2023-06-10T06:01:50;100148.66;;;21.62;43.03
74989;BME280;63542;57.994;56.150;2023-06-10T06:02:22;100150.56;;;21.55;42.76
74989;BME280;63542;57.994;56.150;2023-06-10T06:02:54;100153.41;;;21.66;43.48
74989;BME280;63542;57.994;56.150;2023-06-10T06:03:28;100150.50;;;21.68;42.99
74989;BME280;63542;57.994;56.150;2023-06-10T06:04:03;100154.28;;;21.54;42.75
74989;BME280;63542;57.994;56.150;2023-06-10T06:04:35;100146.19;;;21.47;44.65
74989;BME280;63542;57.994;56.150;2023-06-10T06:05:07;100143.50;;;21.47;43.71
74989;BME280;63542;57.994;56.150;2023-06-10T06:05:38;100147.88;;;21.08;44.75
74989;BME280;63542;57.994;56.150;2023-06-10T06:06:13;100146.03;;;21.15;44.33
74989;BME280;63542;57.994;56.150;2023-06-10T06:06:45;100155.53;;;21.24;45.03
74989;BME280;63542;57.994;56.150;2023-06-10T06:07:17;100147.66;;;21.43;46.26
74989;BME280;63542;57.994;56.150;2023-06-10T06:07:51;100151.31;;;21.68;45.01
74989;BME280;63542;57.994;56.150;2023-06-10T06:08:23;100155.81;;;21.88;44.04
74989;BME280;63542;57.994;56.150;2023-06-10T06:08:56;100152.25;;;21.94;44.52
74989;BME280;63542;57.994;56.150;2023-06-10T06:09:27;100147.47;;;21.96;44.51
74989;BME280;63542;57.994;56.150;2023-06-10T06:10:03;100156.25;;;21.85;44.02
74989;BME280;63542;57.994;56.150;2023-06-10T06:10:35;100154.94;;;21.94;43.64
74989;BME280;63542;57.994;56.150;2023-06-10T06:11:07;100161.47;;;22.25;43.97
74989;BME280;63542;57.994;56.150;2023-06-10T06:11:39;100155.22;;;22.31;43.43
74989;BME280;63542;57.994;56.150;2023-06-10T06:12:12;100160.63;;;22.31;43.36
74989;BME280;63542;57.994;56.150;2023-06-10T06:12:44;100157.09;;;22.31;43.30
74989;BME280;63542;57.994;56.150;2023-06-10T06:13:16;100162.00;;;22.40;42.59
74989;BME280;63542;57.994;56.150;2023-06-10T06:13:48;100169.38;;;22.26;42.63
74989;BME280;63542;57.994;56.150;2023-06-10T06:14:20;100172.19;;;22.38;42.14
74989;BME280;63542;57.994;56.150;2023-06-10T06:14:51;100172.56;;;22.48;41.95
74989;BME280;63542;57.994;56.150;2023-06-10T06:15:23;100170.66;;;22.24;42.04
74989;BME280;63542;57.994;56.150;2023-06-10T06:15:55;100175.84;;;22.12;41.98
74989;BME280;63542;57.994;56.150;2023-06-10T06:16:27;100167.06;;;22.30;41.38
74989;BME280;63542;57.994;56.150;2023-06-10T06:16:58;100173.81;;;22.46;40.93
74989;BME280;63542;57.994;56.150;2023-06-10T06:17:30;100165.41;;;22.61;41.01
74989;BME280;63542;57.994;56.150;2023-06-10T06:18:02;100165.56;;;22.41;41.04
74989;BME280;63542;57.994;56.150;2023-06-10T06:18:34;100164.97;;;22.64;41.46
74989;BME280;63542;57.994;56.150;2023-06-10T06:19:06;100164.00;;;22.83;40.90
74989;BME280;63542;57.994;56.150;2023-06-10T06:19:38;100161.28;;;22.83;40.92
74989;BME280;63542;57.994;56.150;2023-06-10T06:20:10;100164.41;;;22.80;40.73
74989;BME280;63542;57.994;56.150;2023-06-10T06:20:42;100149.19;;;22.61;40.71
74989;BME280;63542;57.994;56.150;2023-06-10T06:21:13;100166.59;;;21.88;41.54
74989;BME280;63542;57.994;56.150;2023-06-10T06:21:45;100172.81;;;21.95;41.57
74989;BME280;63542;57.994;56.150;2023-06-10T06:22:17;100171.97;;;22.01;41.59
74989;BME280;63542;57.994;56.150;2023-06-10T06:22:53;100173.56;;;22.16;42.19
74989;BME280;63542;57.994;56.150;2023-06-10T06:23:25;100172.47;;;21.78;42.18
74989;BME280;63542;57.994;56.150;2023-06-10T06:23:57;100169.66;;;21.46;43.64
74989;BME280;63542;57.994;56.150;2023-06-10T06:24:29;100171.72;;;21.51;43.20
74989;BME280;63542;57.994;56.150;2023-06-10T06:25:00;100165.28;;;21.39;43.31
74989;BME280;63542;57.994;56.150;2023-06-10T06:25:32;100158.88;;;21.26;43.35
74989;BME280;63542;57.994;56.150;2023-06-10T06:26:11;100087.88;;;21.46;43.47
74989;BME280;63542;57.994;56.150;2023-06-10T06:26:45;100063.38;;;21.47;46.67
74989;BME280;63542;57.994;56.150;2023-06-10T06:27:19;100053.38;;;21.61;46.28
74989;BME280;63542;57.994;56.150;2023-06-10T06:28:00;100154.88;;;21.62;42.94
74989;BME280;63542;57.994;56.150;2023-06-10T06:28:33;100168.78;;;21.39;42.60
74989;BME280;63542;57.994;56.150;2023-06-10T06:29:05;100170.03;;;21.50;42.13
74989;BME280;63542;57.994;56.150;2023-06-10T06:29:37;100169.66;;;21.26;42.35
74989;BME280;63542;57.994;56.150;2023-06-10T06:30:09;100176.91;;;21.33;43.33
74989;BME280;63542;57.994;56.150;2023-06-10T06:30:41;100179.59;;;21.39;43.66
74989;BME280;63542;57.994;56.150;2023-06-10T06:31:16;100159.09;;;21.32;43.80
74989;BME280;63542;57.994;56.150;2023-06-10T06:31:48;100152.41;;;21.41;43.98
74989;BME280;63542;57.994;56.150;2023-06-10T06:32:47;100158.81;;;21.60;43.06
74989;BME280;63542;57.994;56.150;2023-06-10T06:33:21;100160.25;;;21.62;42.62
74989;BME280;63542;57.994;56.150;2023-06-10T06:33:53;100159.63;;;21.74;42.11
74989;BME280;63542;57.994;56.150;2023-06-10T06:34:24;100161.03;;;21.83;41.74
74989;BME280;63542;57.994;56.150;2023-06-10T06:34:56;100165.75;;;21.94;41.52
74989;BME280;63542;57.994;56.150;2023-06-10T06:35:31;100162.59;;;22.04;41.33
74989;BME280;63542;57.994;56.150;2023-06-10T06:36:05;100168.56;;;22.13;40.81
74989;BME280;63542;57.994;56.150;2023-06-10T06:36:36;100158.78;;;22.18;40.27
74989;BME280;63542;57.994;56.150;2023-06-10T06:37:08;100168.56;;;22.26;40.95
74989;BME280;63542;57.994;56.150;2023-06-10T06:37:43;100180.19;;;22.26;41.67
74989;BME280;63542;57.994;56.150;2023-06-10T06:38:23;100181.97;;;21.87;43.05
74989;BME280;63542;57.994;56.150;2023-06-10T06:38:55;100179.34;;;22.19;42.58
74989;BME280;63542;57.994;56.150;2023-06-10T06:39:28;100180.38;;;22.25;42.58
74989;BME280;63542;57.994;56.150;2023-06-10T06:40:00;100180.19;;;22.20;42.65
74989;BME280;63542;57.994;56.150;2023-06-10T06:40:32;100177.06;;;22.23;42.59
74989;BME280;63542;57.994;56.150;2023-06-10T06:41:04;100183.13;;;22.12;42.26
74989;BME280;63542;57.994;56.150;2023-06-10T06:41:38;100175.31;;;21.97;42.60
74989;BME280;63542;57.994;56.150;2023-06-10T06:42:10;100174.22;;;21.46;43.66
74989;BME280;63542;57.994;56.150;2023-06-10T06:42:52;100180.47;;;21.06;44.71
74989;BME280;63542;57.994;56.150;2023-06-10T06:43:42;100188.84;;;19.82;45.73
74989;BME280;63542;57.994;56.150;2023-06-10T06:44:23;100182.81;;;19.10;47.67
74989;BME280;63542;57.994;56.150;2023-06-10T06:44:57;100180.78;;;19.47;47.02
74989;BME280;63542;57.994;56.150;2023-06-10T06:45:30;100176.34;;;19.04;47.28
74989;BME280;63542;57.994;56.150;2023-06-10T06:46:01;100177.34;;;19.60;46.49
74989;BME280;63542;57.994;56.150;2023-06-10T06:46:33;100190.38;;;19.91;46.73
74989;BME280;63542;57.994;56.150;2023-06-10T06:47:07;100187.81;;;20.38;46.81
74989;BME280;63542;57.994;56.150;2023-06-10T06:47:38;100181.91;;;20.69;46.98
74989;BME280;63542;57.994;56.150;2023-06-10T06:48:53;100120.72;;;21.16;46.44
74989;BME280;63542;57.994;56.150;2023-06-10T06:49:24;100102.81;;;21.55;46.59
74989;BME280;63542;57.994;56.150;2023-06-10T06:49:56;100052.03;;;21.84;46.09
74989;BME280;63542;57.994;56.150;2023-06-10T06:50:27;100014.84;;;22.11;45.65
74989;BME280;63542;57.994;56.150;2023-06-10T06:50:59;99977.66;;;22.38;45.67
74989;BME280;63542;57.994;56.150;2023-06-10T06:51:31;99933.75;;;22.68;44.96
74989;BME280;63542;57.994;56.150;2023-06-10T06:52:03;99944.22;;;22.95;45.52
74989;BME280;63542;57.994;56.150;2023-06-10T06:52:36;99953.09;;;23.20;45.23
74989;BME280;63542;57.994;56.150;2023-06-10T06:53:08;99971.47;;;23.48;44.69
74989;BME280;63542;57.994;56.150;2023-06-10T06:53:40;99966.94;;;23.73;43.47
74989;BME280;63542;57.994;56.150;2023-06-10T06:54:19;100118.25;;;23.99;44.17
74989;BME280;63542;57.994;56.150;2023-06-10T06:54:51;100152.94;;;24.21;43.80
74989;BME280;63542;57.994;56.150;2023-06-10T06:55:23;100172.03;;;24.44;41.81
74989;BME280;63542;57.994;56.150;2023-06-10T06:55:55;100001.41;;;24.61;42.29
74989;BME280;63542;57.994;56.150;2023-06-10T06:56:29;99989.72;;;24.84;41.58
74989;BME280;63542;57.994;56.150;2023-06-10T06:57:02;99955.13;;;25.03;40.93
74989;BME280;63542;57.994;56.150;2023-06-10T06:57:43;99950.97;;;25.24;40.62
74989;BME280;63542;57.994;56.150;2023-06-10T06:58:17;99938.84;;;25.44;41.04
74989;BME280;63542;57.994;56.150;2023-06-10T06:58:49;99892.47;;;25.62;40.70
74989;BME280;63542;57.994;56.150;2023-06-10T06:59:21;99799.31;;;25.79;40.33
74989;BME280;63542;57.994;56.150;2023-06-10T06:59:54;99801.50;;;25.99;40.66
74989;BME280;63542;57.994;56.150;2023-06-10T07:00:28;99751.97;;;26.13;40.57
74989;BME280;63542;57.994;56.150;2023-06-10T07:01:00;99676.06;;;26.29;40.13
74989;BME280;63542;57.994;56.150;2023-06-10T07:01:33;99618.56;;;26.42;36.05
74989;BME280;63542;57.994;56.150;2023-06-10T07:02:06;99621.31;;;26.47;34.44
74989;BME280;63542;57.994;56.150;2023-06-10T07:02:38;99609.41;;;26.53;31.99
74989;BME280;63542;57.994;56.150;2023-06-10T07:03:14;99685.66;;;26.59;30.69
74989;BME280;63542;57.994;56.150;2023-06-10T07:03:47;99681.78;;;26.55;30.34
74989;BME280;63542;57.994;56.150;2023-06-10T07:04:20;99731.31;;;26.57;30.57
74989;BME280;63542;57.994;56.150;2023-06-10T07:04:53;99811.00;;;26.57;30.02
74989;BME280;63542;57.994;56.150;2023-06-10T07:05:27;99577.88;;;26.52;30.31
74989;BME280;63542;57.994;56.150;2023-06-10T07:06:00;99540.06;;;26.51;30.37
74989;BME280;63542;57.994;56.150;2023-06-10T07:06:31;99542.47;;;26.47;30.95
74989;BME280;63542;57.994;56.150;2023-06-10T07:07:06;99492.97;;;26.45;30.84
74989;BME280;63542;57.994;56.150;2023-06-10T07:07:43;99494.56;;;26.36;31.58
74989;BME280;63542;57.994;56.150;2023-06-10T07:08:16;99522.81;;;26.35;31.08
74989;BME280;63542;57.994;56.150;2023-06-10T07:08:49;99518.81;;;26.10;32.33
74989;BME280;63542;57.994;56.150;2023-06-10T07:09:22;99516.69;;;26.18;32.16
74989;BME280;63542;57.994;56.150;2023-06-10T07:09:53;99479.78;;;26.27;32.11
74989;BME280;63542;57.994;56.150;2023-06-10T07:10:26;99458.66;;;26.34;31.87
74989;BME280;63542;57.994;56.150;2023-06-10T07:10:59;99423.34;;;26.39;31.38
74989;BME280;63542;57.994;56.150;2023-06-10T07:11:30;99419.50;;;26.35;30.42
74989;BME280;63542;57.994;56.150;2023-06-10T07:12:02;99424.44;;;26.38;31.57
74989;BME280;63542;57.994;56.150;2023-06-10T07:12:34;99424.47;;;26.43;32.19
74989;BME280;63542;57.994;56.150;2023-06-10T07:13:06;99429.38;;;26.46;32.09
74989;BME280;63542;57.994;56.150;2023-06-10T07:13:38;99428.03;;;26.49;32.56
74989;BME280;63542;57.994;56.150;2023-06-10T07:14:10;99430.50;;;26.50;32.31
74989;BME280;63542;57.994;56.150;2023-06-10T07:14:41;99420.19;;;26.52;32.39
74989;BME280;63542;57.994;56.150;2023-06-10T07:15:13;99425.09;;;26.56;32.42
74989;BME280;63542;57.994;56.150;2023-06-10T07:15:48;99430.53;;;26.56;31.99
74989;BME280;63542;57.994;56.150;2023-06-10T07:16:20;99420.22;;;26.58;32.87
74989;BME280;63542;57.994;56.150;2023-06-10T07:16:52;99419.72;;;26.61;32.73
74989;BME280;63542;57.994;56.150;2023-06-10T07:17:24;99421.66;;;26.65;32.77
74989;BME280;63542;57.994;56.150;2023-06-10T07:17:56;99417.00;;;26.66;32.45
74989;BME280;63542;57.994;56.150;2023-06-10T07:18:30;99406.94;;;26.61;32.57
74989;BME280;63542;57.994;56.150;2023-06-10T07:19:02;99398.47;;;26.58;32.80
74989;BME280;63542;57.994;56.150;2023-06-10T07:19:33;99397.97;;;26.61;32.44
74989;BME280;63542;57.994;56.150;2023-06-10T07:20:06;99427.41;;;26.79;32.56
74989;BME280;63542;57.994;56.150;2023-06-10T07:20:38;99426.09;;;26.82;32.56
74989;BME280;63542;57.994;56.150;2023-06-10T07:21:09;99424.47;;;26.86;32.84
74989;BME280;63542;57.994;56.150;2023-06-10T07:21:41;99418.75;;;26.87;32.24
74989;BME280;63542;57.994;56.150;2023-06-10T07:22:14;99423.94;;;26.94;32.28
74989;BME280;63542;57.994;56.150;2023-06-10T07:22:46;99425.84;;;26.93;32.19
74989;BME280;63542;57.994;56.150;2023-06-10T07:23:17;99409.78;;;26.92;32.22
74989;BME280;63542;57.994;56.150;2023-06-10T07:23:49;99405.72;;;26.95;32.95
74989;BME280;63542;57.994;56.150;2023-06-10T07:24:24;99421.00;;;27.06;32.05
74989;BME280;63542;57.994;56.150;2023-06-10T07:24:57;99425.38;;;27.12;32.47
74989;BME280;63542;57.994;56.150;2023-06-10T07:25:29;99421.03;;;27.11;32.10
74989;BME280;63542;57.994;56.150;2023-06-10T07:26:01;99427.56;;;27.20;31.92
74989;BME280;63542;57.994;56.150;2023-06-10T07:26:33;99422.13;;;27.20;32.06
74989;BME280;63542;57.994;56.150;2023-06-10T07:27:05;99409.59;;;27.19;31.97
74989;BME280;63542;57.994;56.150;2023-06-10T07:27:38;99412.38;;;27.24;31.88
74989;BME280;63542;57.994;56.150;2023-06-10T07:28:10;99420.03;;;27.32;32.24
74989;BME280;63542;57.994;56.150;2023-06-10T07:28:42;99407.47;;;27.31;32.01
74989;BME280;63542;57.994;56.150;2023-06-10T07:29:14;99425.50;;;27.43;31.82
74989;BME280;63542;57.994;56.150;2023-06-10T07:29:45;99410.78;;;27.39;32.14
74989;BME280;63542;57.994;56.150;2023-06-10T07:30:17;99390.63;;;27.35;31.88
74989;BME280;63542;57.994;56.150;2023-06-10T07:30:49;99415.16;;;27.50;31.57
74989;BME280;63542;57.994;56.150;2023-06-10T07:31:22;99423.34;;;27.55;31.76
74989;BME280;63542;57.994;56.150;2023-06-10T07:31:54;99429.06;;;27.59;31.91
74989;BME280;63542;57.994;56.150;2023-06-10T07:32:26;99420.63;;;27.60;31.30
74989;BME280;63542;57.994;56.150;2023-06-10T07:32:58;99397.19;;;27.49;32.01
74989;BME280;63542;57.994;56.150;2023-06-10T07:33:30;99419.50;;;27.61;32.18
74989;BME280;63542;57.994;56.150;2023-06-10T07:34:02;99414.63;;;27.63;31.71
74989;BME280;63542;57.994;56.150;2023-06-10T07:34:34;99422.81;;;27.68;32.19
74989;BME280;63542;57.994;56.150;2023-06-10T07:35:08;99414.91;;;27.67;32.28
74989;BME280;63542;57.994;56.150;2023-06-10T07:35:42;99416.81;;;27.71;31.93
74989;BME280;63542;57.994;56.150;2023-06-10T07:36:32;99405.91;;;27.61;32.72
74989;BME280;63542;57.994;56.150;2023-06-10T07:37:05;99407.00;;;27.65;32.38
74989;BME280;63542;57.994;56.150;2023-06-10T07:37:37;99413.53;;;27.69;32.29
74989;BME280;63542;57.994;56.150;2023-06-10T07:38:08;99415.47;;;27.74;32.55